South Chaplin, Connecticut
Current Conditions -  °F | °C
As of 5:52 PM on Wednesday 22 Oct 2014 (Local Time) from KIJD Reporting Station
Light Rain Light Rain  
Wind Chill: 51°   Ceiling: 1600
Heat Index: 51°   Visibility: 9mi
Dew Point: 47°   Wind: 16mph
Humidity: 86%   Direction: 20°NNE
Pressure: 29.83"   Gusts: 30mph
Location:  41.7601°N, 72.123°W
Report Text: KIJD 222152Z AUTO 02014G26KT 9SM -RA OVC016 11/08 A2983 RMK AO2 PK WND 02027/2142 RAE2053B32 SLP100 P0001 T01060083
Loading
Personal Weather Stations






























Interactive Weather Map New forecast layout! Learn more

10-Day Weather Forecast

Advertisements
Track Severe Weather on mobile